Disclaimer

Please do not use the information listed here in-flight or in-navigation, as they are not provided to us by the airports but are provided by volunteers, so they might be outdated.

Search


Regions


Airport information page

Radio informations:
MADINAH TWR - 118.3 MHz
Ground (GND) - 121.9 MHz
Automatic Terminal Information Service (ATIS) - 114.1 MHz
MADINAH APP - 124.2 MHz

Airport informations:
Latitude: 24° 33' 12.32" N
Longitude: 039° 42' 18.22" E
Elevation: 2151 feet - 656 meters
Operating hours: 24 hour operations
Operating agency: Civil government, landing fees and diplomatic clearance may be required
Timezone: UTC+3
Fuel: Jet A1, without icing nhibitor.

Runway information:
17/35 - 13149 x 147 feet< - >4008 x 45 meters
18/36 - 10039 x 147 feet< - >3060 x 45 meters

Recent METARs:
OEMA 190200Z 02006KT CAVOK 21/12 Q1017 NOSIG
OEMA 190200Z 02006KT CAVOK 21/12 Q1017 NOSIG
OEMA 190300Z 00000KT 9999 FEW045 21/12 Q1018 NOSIG

Airport on the map: